Time;durP1;ratioP1;P1;durP2;ratioP2;P2;SDS_P1;SDS_P2;PMS_P1;PMS_P2;Temp;Humidity;BMP_temperature;BMP_pressure;BME280_temperature;BME280_humidity;BME280_pressure;Samples;Min_cycle;Max_cycle;Signal;HPM_P1;HPM_P2
2023/11/18 00:01:44;;;;;;;15.82;7.15;;;1.10;99.90;;;;;;5101510;28;20047;-64
2023/11/18 00:04:15;;;;;;;17.17;6.85;;;1.10;99.90;;;;;;5100573;28;20046;-63
2023/11/18 00:06:43;;;;;;;14.50;6.85;;;1.10;99.90;;;;;;5101303;28;20147;-63
2023/11/18 00:09:14;;;;;;;15.85;7.00;;;1.10;99.90;;;;;;5101650;28;20062;-64
2023/11/18 00:11:40;;;;;;;11.77;6.65;;;1.10;99.90;;;;;;5108124;28;20058;-64
2023/11/18 00:14:07;;;;;;;16.55;6.85;;;1.00;99.90;;;;;;5104550;28;20100;-64
2023/11/18 00:16:34;;;;;;;14.10;6.65;;;1.00;99.90;;;;;;5104219;28;20053;-62
2023/11/18 00:19:00;;;;;;;14.73;6.53;;;1.00;99.90;;;;;;5087380;28;20048;-64
2023/11/18 00:21:25;;;;;;;14.38;6.13;;;1.00;99.90;;;;;;5094147;28;20063;-62
2023/11/18 00:23:51;;;;;;;12.23;5.75;;;1.00;99.90;;;;;;5091390;28;20048;-64
2023/11/18 00:26:16;;;;;;;13.13;6.53;;;1.00;99.90;;;;;;5092219;28;20044;-63
2023/11/18 00:28:42;;;;;;;12.13;5.15;;;1.00;99.90;;;;;;5090368;28;20095;-63
2023/11/18 00:31:08;;;;;;;11.85;5.25;;;1.00;99.90;;;;;;5095505;27;20502;-63
2023/11/18 00:33:33;;;;;;;8.60;4.43;;;1.00;99.90;;;;;;5111314;27;20036;-63
2023/11/18 00:36:00;;;;;;;11.32;5.00;;;1.00;99.90;;;;;;5107261;28;20091;-61
2023/11/18 00:38:26;;;;;;;12.88;5.18;;;0.90;99.90;;;;;;5107518;27;20058;-62
2023/11/18 00:40:52;;;;;;;12.07;4.85;;;0.90;99.90;;;;;;5107493;28;20078;-63
2023/11/18 00:43:17;;;;;;;11.20;4.65;;;0.90;99.90;;;;;;5106500;28;20035;-62
2023/11/18 00:45:43;;;;;;;11.55;4.45;;;0.90;99.90;;;;;;5106775;28;20048;-62
2023/11/18 00:48:09;;;;;;;9.63;4.82;;;0.90;99.90;;;;;;5108067;27;20032;-63
2023/11/18 00:50:35;;;;;;;10.07;4.50;;;0.80;99.90;;;;;;5105848;28;20040;-62
2023/11/18 00:53:01;;;;;;;9.60;4.65;;;0.90;99.90;;;;;;5105333;28;20470;-63
2023/11/18 00:55:27;;;;;;;9.45;4.30;;;0.90;99.90;;;;;;5111884;27;20712;-63
2023/11/18 00:57:52;;;;;;;8.05;3.97;;;0.90;99.90;;;;;;5106516;28;20035;-64
2023/11/18 01:00:26;;;;;;;9.63;4.00;;;0.80;99.90;;;;;;5104728;28;20141;-62
2023/11/18 01:02:54;;;;;;;7.55;3.83;;;0.80;99.90;;;;;;5104337;28;20639;-64
2023/11/18 01:05:20;;;;;;;8.60;3.50;;;0.90;99.90;;;;;;5101309;27;20046;-64
2023/11/18 01:07:45;;;;;;;9.05;4.85;;;0.90;99.90;;;;;;5108405;27;20035;-63
2023/11/18 01:10:12;;;;;;;6.85;3.95;;;0.80;99.90;;;;;;5106096;28;20032;-63
2023/11/18 01:12:37;;;;;;;14.45;4.47;;;0.80;99.90;;;;;;5105894;28;20059;-62
2023/11/18 01:15:03;;;;;;;8.15;4.45;;;0.80;99.90;;;;;;5097798;28;20070;-63
2023/11/18 01:17:31;;;;;;;8.35;4.28;;;0.70;99.90;;;;;;5105046;27;20044;-63
2023/11/18 01:19:57;;;;;;;9.80;4.07;;;0.70;99.90;;;;;;5104944;28;20036;-61
2023/11/18 01:22:22;;;;;;;10.60;4.47;;;0.60;99.90;;;;;;5105929;28;20568;-62
2023/11/18 01:24:48;;;;;;;8.95;4.80;;;0.60;99.90;;;;;;5105647;28;20040;-62
2023/11/18 01:27:13;;;;;;;7.43;4.25;;;0.60;99.90;;;;;;5109848;27;20031;-62
2023/11/18 01:29:39;;;;;;;8.77;4.28;;;0.60;99.90;;;;;;5105223;28;20083;-63
2023/11/18 01:32:09;;;;;;;11.85;4.30;;;0.50;99.90;;;;;;5103340;28;20044;-62
2023/11/18 01:34:39;;;;;;;9.43;4.88;;;0.50;99.90;;;;;;5101974;28;20104;-63
2023/11/18 01:37:07;;;;;;;8.05;4.32;;;0.60;99.90;;;;;;5102411;28;20047;-63
2023/11/18 01:39:33;;;;;;;6.97;3.03;;;0.50;99.90;;;;;;5104982;28;20075;-65
2023/11/18 01:41:59;;;;;;;6.97;3.08;;;0.60;99.90;;;;;;5099407;28;20039;-61
2023/11/18 01:44:28;;;;;;;9.23;3.17;;;0.50;99.90;;;;;;5105993;28;20059;-63
2023/11/18 01:46:54;;;;;;;6.47;3.17;;;0.60;99.90;;;;;;5098314;28;20063;-65
2023/11/18 01:49:20;;;;;;;8.52;2.72;;;0.60;99.90;;;;;;5106103;28;20059;-61
2023/11/18 01:51:46;;;;;;;6.97;2.55;;;0.60;99.90;;;;;;5107413;27;20072;-62
2023/11/18 01:54:18;;;;;;;7.80;2.75;;;0.60;99.90;;;;;;5101475;28;20126;-63
2023/11/18 01:56:49;;;;;;;7.93;3.42;;;0.50;99.90;;;;;;5104520;28;20051;-59
2023/11/18 01:59:18;;;;;;;6.95;3.50;;;0.60;99.90;;;;;;5105562;28;20039;-61
2023/11/18 02:01:54;;;;;;;6.22;3.28;;;0.50;99.90;;;;;;5103181;28;20176;-63
2023/11/18 02:04:20;;;;;;;4.40;2.25;;;0.50;99.90;;;;;;5105533;27;20559;-62
2023/11/18 02:06:48;;;;;;;6.47;3.13;;;0.50;99.90;;;;;;5107916;27;20465;-61
2023/11/18 02:09:28;;;;;;;5.88;2.67;;;0.50;99.90;;;;;;5107507;27;20044;-63
2023/11/18 02:12:56;;;;;;;5.60;2.70;;;0.50;99.90;;;;;;5101518;28;20036;-62
2023/11/18 02:15:23;;;;;;;9.40;3.70;;;0.40;99.90;;;;;;5011354;28;20079;-62
2023/11/18 02:17:52;;;;;;;6.47;3.15;;;0.40;99.90;;;;;;5022682;28;20136;-62
2023/11/18 02:20:20;;;;;;;5.32;2.60;;;0.40;99.90;;;;;;5060854;28;20059;-62
2023/11/18 02:22:47;;;;;;;3.80;1.67;;;0.40;99.90;;;;;;5103293;28;20035;-61
2023/11/18 02:25:17;;;;;;;4.15;1.60;;;0.40;99.90;;;;;;5105971;27;20040;-60
2023/11/18 02:27:43;;;;;;;3.00;1.25;;;0.40;99.90;;;;;;5104348;28;20128;-62
2023/11/18 02:30:12;;;;;;;3.95;1.27;;;0.40;99.90;;;;;;5101600;28;20063;-62
2023/11/18 02:33:02;;;;;;;4.30;1.48;;;0.40;99.90;;;;;;5085206;28;20043;-62
2023/11/18 02:35:29;;;;;;;3.28;1.70;;;0.40;99.90;;;;;;5082848;28;20407;-60
2023/11/18 02:37:56;;;;;;;5.60;1.67;;;0.40;99.90;;;;;;5085727;28;20044;-62
2023/11/18 02:40:35;;;;;;;5.80;2.15;;;0.40;99.90;;;;;;5081387;28;20079;-62
2023/11/18 02:43:04;;;;;;;4.22;2.10;;;0.40;99.90;;;;;;5083783;28;20056;-60
2023/11/18 02:45:31;;;;;;;5.30;1.95;;;0.30;99.90;;;;;;5085094;28;20072;-62
2023/11/18 02:47:57;;;;;;;6.50;2.42;;;0.30;99.90;;;;;;5081405;28;20047;-62
2023/11/18 02:50:29;;;;;;;4.47;2.25;;;0.30;99.90;;;;;;5088171;28;20106;-62
2023/11/18 02:52:55;;;;;;;2.47;1.70;;;0.30;99.90;;;;;;5080465;28;20749;-61
2023/11/18 02:55:22;;;;;;;4.10;2.20;;;0.20;99.90;;;;;;5084535;28;20124;-61
2023/11/18 02:57:49;;;;;;;4.40;2.10;;;0.20;99.90;;;;;;5083251;28;20403;-62
2023/11/18 03:00:21;;;;;;;3.95;1.80;;;0.20;99.90;;;;;;5083381;28;20102;-61
2023/11/18 03:02:47;;;;;;;3.22;1.98;;;0.20;99.90;;;;;;5100791;28;20569;-62
2023/11/18 03:05:12;;;;;;;5.15;1.55;;;0.20;99.90;;;;;;5104575;28;20039;-63
2023/11/18 03:07:39;;;;;;;2.67;1.73;;;0.10;99.90;;;;;;5102048;28;20052;-60
2023/11/18 03:10:10;;;;;;;4.50;1.80;;;0.20;99.90;;;;;;5099599;28;20604;-60
2023/11/18 03:12:37;;;;;;;4.20;1.52;;;0.10;99.90;;;;;;5104515;28;20939;-63
2023/11/18 03:15:09;;;;;;;4.57;1.80;;;0.10;99.90;;;;;;5104538;28;20035;-63
2023/11/18 03:17:34;;;;;;;3.65;1.77;;;0.20;99.90;;;;;;5099963;28;20086;-63
2023/11/18 03:20:00;;;;;;;3.45;1.38;;;0.10;99.90;;;;;;5099734;28;20079;-64
2023/11/18 03:22:26;;;;;;;5.03;1.48;;;0.10;99.90;;;;;;5101447;28;20255;-63
2023/11/18 03:24:52;;;;;;;4.00;1.30;;;0.10;99.90;;;;;;5100570;28;20053;-63
2023/11/18 03:27:18;;;;;;;2.92;1.10;;;0.10;99.90;;;;;;5106277;28;20040;-63
2023/11/18 03:29:45;;;;;;;2.40;1.25;;;0.10;99.90;;;;;;5100543;28;20042;-63
2023/11/18 03:32:12;;;;;;;5.38;1.65;;;0.10;99.90;;;;;;5098688;28;20053;-64
2023/11/18 03:34:38;;;;;;;3.83;1.42;;;0.00;99.90;;;;;;5101630;28;20036;-66
2023/11/18 03:37:04;;;;;;;4.55;1.17;;;0.00;99.90;;;;;;5101518;28;20036;-63
2023/11/18 03:39:30;;;;;;;2.28;1.27;;;0.00;99.90;;;;;;5093894;28;20032;-63
2023/11/18 03:41:57;;;;;;;4.40;1.40;;;0.00;99.90;;;;;;5095109;28;20047;-63
2023/11/18 03:44:24;;;;;;;8.60;1.80;;;0.00;99.90;;;;;;5102276;28;20511;-62
2023/11/18 03:46:49;;;;;;;3.67;1.25;;;0.00;99.90;;;;;;5094587;28;20067;-62
2023/11/18 03:49:15;;;;;;;3.88;1.27;;;0.00;99.90;;;;;;5104092;28;20067;-63
2023/11/18 03:51:40;;;;;;;3.40;1.42;;;0.00;99.90;;;;;;5105025;28;20057;-64
2023/11/18 03:54:08;;;;;;;4.03;1.40;;;0.00;99.90;;;;;;5111390;27;20510;-64
2023/11/18 03:56:34;;;;;;;3.17;1.83;;;0.00;99.90;;;;;;5110331;27;20092;-62
2023/11/18 03:58:59;;;;;;;3.92;1.50;;;0.00;99.90;;;;;;5109530;27;20039;-62
2023/11/18 04:01:29;;;;;;;4.43;1.30;;;0.00;99.90;;;;;;5106687;28;20050;-64
2023/11/18 04:03:55;;;;;;;2.28;1.30;;;-0.10;99.90;;;;;;5108303;28;20117;-64
2023/11/18 04:06:24;;;;;;;2.70;1.35;;;-0.10;99.90;;;;;;5103509;28;20489;-64
2023/11/18 04:08:50;;;;;;;1.92;1.27;;;-0.10;99.90;;;;;;5107920;28;20035;-64
2023/11/18 04:11:16;;;;;;;2.95;1.45;;;0.00;99.90;;;;;;5107347;28;20036;-64
2023/11/18 04:13:42;;;;;;;3.83;1.33;;;-0.10;99.90;;;;;;5101161;28;20040;-64
2023/11/18 04:16:15;;;;;;;2.78;1.35;;;-0.10;99.90;;;;;;5108354;27;20051;-64
2023/11/18 04:18:44;;;;;;;4.43;1.85;;;-0.10;99.90;;;;;;5108241;27;20032;-62
2023/11/18 04:21:17;;;;;;;2.37;1.33;;;-0.10;99.90;;;;;;5103585;28;20058;-63
2023/11/18 04:23:46;;;;;;;3.35;1.40;;;-0.10;99.90;;;;;;5105896;28;20040;-63
2023/11/18 04:26:12;;;;;;;6.70;1.10;;;-0.20;99.90;;;;;;5104760;27;20086;-61
2023/11/18 04:28:38;;;;;;;2.17;1.40;;;-0.10;99.90;;;;;;5107282;27;20545;-63
2023/11/18 04:31:07;;;;;;;3.03;1.33;;;-0.20;99.90;;;;;;5108179;27;20395;-63
2023/11/18 04:33:33;;;;;;;3.55;1.10;;;-0.10;99.90;;;;;;5102422;28;20512;-62
2023/11/18 04:35:59;;;;;;;2.25;1.13;;;-0.10;99.90;;;;;;5100827;27;20043;-62
2023/11/18 04:38:25;;;;;;;3.83;1.48;;;-0.10;99.90;;;;;;5105364;28;20590;-63
2023/11/18 04:40:53;;;;;;;2.55;1.10;;;-0.10;99.90;;;;;;5109746;27;20664;-63
2023/11/18 04:43:20;;;;;;;6.03;1.52;;;-0.10;99.90;;;;;;5106052;28;20042;-64
2023/11/18 04:45:45;;;;;;;3.95;1.10;;;-0.20;99.90;;;;;;5102883;27;20048;-63
2023/11/18 04:48:13;;;;;;;2.33;1.30;;;-0.10;99.90;;;;;;5106057;28;20043;-63
2023/11/18 04:50:39;;;;;;;2.15;1.10;;;-0.20;99.90;;;;;;5106527;28;20036;-63
2023/11/18 04:53:08;;;;;;;1.60;1.20;;;-0.20;99.90;;;;;;5107652;27;20039;-63
2023/11/18 04:55:35;;;;;;;2.63;1.17;;;-0.20;99.90;;;;;;5102446;28;20181;-65
2023/11/18 04:58:01;;;;;;;1.65;0.93;;;-0.20;99.90;;;;;;5107666;27;20065;-64
2023/11/18 05:00:27;;;;;;;7.80;1.33;;;-0.20;99.90;;;;;;5104135;28;20042;-63
2023/11/18 05:02:53;;;;;;;5.05;1.40;;;-0.20;99.90;;;;;;5104296;28;20039;-64
2023/11/18 05:05:19;;;;;;;2.40;1.10;;;-0.10;99.90;;;;;;5100714;28;20039;-63
2023/11/18 05:07:45;;;;;;;1.90;1.00;;;-0.20;99.90;;;;;;5104709;28;20033;-64
2023/11/18 05:10:11;;;;;;;2.90;1.15;;;-0.20;99.90;;;;;;5106294;27;20096;-63
2023/11/18 05:12:37;;;;;;;2.15;1.40;;;-0.10;99.90;;;;;;5105036;27;20059;-64
2023/11/18 05:15:04;;;;;;;3.30;1.50;;;0.00;99.90;;;;;;5106788;28;20487;-63
2023/11/18 05:17:30;;;;;;;2.45;1.58;;;0.10;99.90;;;;;;5104110;28;20039;-62
2023/11/18 05:19:56;;;;;;;4.35;1.65;;;0.10;99.90;;;;;;5102978;28;20533;-63
2023/11/18 05:22:22;;;;;;;3.78;1.40;;;0.10;99.90;;;;;;5100048;27;20048;-63
2023/11/18 05:24:50;;;;;;;3.72;1.73;;;0.20;99.90;;;;;;5104605;28;20038;-63
2023/11/18 05:27:17;;;;;;;2.78;1.42;;;0.20;99.90;;;;;;5100887;28;20051;-63
2023/11/18 05:29:45;;;;;;;3.58;1.73;;;0.20;99.90;;;;;;5105995;27;20039;-62
2023/11/18 05:32:10;;;;;;;5.85;2.10;;;0.20;99.90;;;;;;5088000;28;20131;-62
2023/11/18 05:34:36;;;;;;;3.25;1.90;;;0.30;99.90;;;;;;5086143;28;20560;-62
2023/11/18 05:37:02;;;;;;;2.88;1.80;;;0.30;99.90;;;;;;5086144;28;20047;-63
2023/11/18 05:39:31;;;;;;;3.72;2.13;;;0.30;99.90;;;;;;5084022;28;20078;-61
2023/11/18 05:41:58;;;;;;;4.38;2.28;;;0.40;99.90;;;;;;5086612;28;20044;-63
2023/11/18 05:44:30;;;;;;;6.55;2.55;;;0.30;99.90;;;;;;5084430;28;20073;-63
2023/11/18 05:46:59;;;;;;;4.93;2.65;;;0.40;99.90;;;;;;5086608;28;20040;-62
2023/11/18 05:49:24;;;;;;;7.07;3.28;;;0.40;99.90;;;;;;5084996;28;20040;-63
2023/11/18 05:51:51;;;;;;;3.88;2.28;;;0.40;99.90;;;;;;5086045;28;20028;-63
2023/11/18 05:54:17;;;;;;;5.22;3.00;;;0.30;99.90;;;;;;5084819;28;20487;-63
2023/11/18 05:56:43;;;;;;;9.35;3.53;;;0.30;99.90;;;;;;5086099;28;20511;-63
2023/11/18 05:59:10;;;;;;;6.63;3.80;;;0.30;99.90;;;;;;5085460;28;20063;-63
2023/11/18 06:01:37;;;;;;;8.52;3.85;;;0.30;99.90;;;;;;5084835;28;20462;-62
2023/11/18 06:04:03;;;;;;;6.85;4.13;;;0.20;99.90;;;;;;5085458;28;20048;-60
2023/11/18 06:06:28;;;;;;;7.45;3.38;;;0.30;99.90;;;;;;5086252;28;20044;-62
2023/11/18 06:08:54;;;;;;;9.07;4.38;;;0.30;99.90;;;;;;5087799;28;20143;-61
2023/11/18 06:11:20;;;;;;;8.50;4.50;;;0.30;99.90;;;;;;5087790;28;20024;-61
2023/11/18 06:13:50;;;;;;;7.88;5.00;;;0.40;99.90;;;;;;5089941;28;20116;-60
2023/11/18 06:16:21;;;;;;;12.32;4.90;;;0.40;99.90;;;;;;5085200;28;20114;-62
2023/11/18 06:18:48;;;;;;;9.40;4.97;;;0.50;99.90;;;;;;5094252;28;20318;-62
2023/11/18 06:21:15;;;;;;;8.40;4.78;;;0.50;99.90;;;;;;5080991;28;20028;-62
2023/11/18 06:23:42;;;;;;;10.88;4.95;;;0.60;99.90;;;;;;5077781;28;20093;-62
2023/11/18 06:26:10;;;;;;;12.55;5.05;;;0.60;99.90;;;;;;5080430;28;20044;-62
2023/11/18 06:28:36;;;;;;;11.40;4.68;;;0.60;99.90;;;;;;5081968;28;20586;-63
2023/11/18 06:31:02;;;;;;;14.20;4.47;;;0.70;99.90;;;;;;5082186;28;20510;-63
2023/11/18 06:33:28;;;;;;;7.70;4.18;;;0.70;99.90;;;;;;5080558;28;20041;-62
2023/11/18 06:35:57;;;;;;;8.55;4.45;;;0.70;99.90;;;;;;5083908;28;20043;-63
2023/11/18 06:38:22;;;;;;;8.77;4.90;;;0.80;99.90;;;;;;5079436;28;20135;-62
2023/11/18 06:40:52;;;;;;;9.18;4.53;;;0.90;99.90;;;;;;5079861;28;20832;-62
2023/11/18 06:43:21;;;;;;;11.38;4.57;;;0.90;99.90;;;;;;5081244;28;20043;-63
2023/11/18 06:45:48;;;;;;;8.65;4.50;;;1.00;99.90;;;;;;5083763;28;20171;-63
2023/11/18 06:48:14;;;;;;;8.88;4.65;;;1.10;99.90;;;;;;5084733;28;20039;-62
2023/11/18 06:50:43;;;;;;;9.23;5.25;;;1.10;99.90;;;;;;5084317;28;20032;-60
2023/11/18 06:53:10;;;;;;;12.73;5.80;;;1.20;99.90;;;;;;5079717;28;20045;-60
2023/11/18 06:55:36;;;;;;;8.85;4.68;;;1.30;99.90;;;;;;5083327;28;20048;-63
2023/11/18 06:58:02;;;;;;;9.82;5.13;;;1.30;99.90;;;;;;5084052;28;20083;-62
2023/11/18 07:00:29;;;;;;;10.07;5.43;;;1.40;99.90;;;;;;5076565;28;20086;-64
2023/11/18 07:02:55;;;;;;;10.23;5.53;;;1.50;99.90;;;;;;5081823;28;20044;-61
2023/11/18 07:05:23;;;;;;;10.43;5.10;;;1.50;99.90;;;;;;5082156;28;20042;-62
2023/11/18 07:07:49;;;;;;;8.88;4.93;;;1.50;99.90;;;;;;5084365;28;20075;-59
2023/11/18 07:10:18;;;;;;;9.45;4.97;;;1.60;99.90;;;;;;5084781;28;20090;-62
2023/11/18 07:12:44;;;;;;;9.13;4.75;;;1.60;99.90;;;;;;5083368;28;20044;-61
2023/11/18 07:15:10;;;;;;;13.55;5.53;;;1.60;99.90;;;;;;5084670;28;20039;-62
2023/11/18 07:17:36;;;;;;;7.10;4.30;;;1.70;99.90;;;;;;5079094;28;20043;-62
2023/11/18 07:20:02;;;;;;;13.40;5.03;;;1.70;99.90;;;;;;5083868;28;20044;-62
2023/11/18 07:22:27;;;;;;;11.38;5.00;;;1.80;99.90;;;;;;5082206;28;20028;-63
2023/11/18 07:24:53;;;;;;;7.40;4.72;;;1.80;99.90;;;;;;5080977;28;20068;-63
2023/11/18 07:27:18;;;;;;;9.80;4.22;;;1.80;99.90;;;;;;5080161;28;20032;-62
2023/11/18 07:29:45;;;;;;;8.18;4.65;;;1.80;99.90;;;;;;5087689;28;20047;-63
2023/11/18 07:32:11;;;;;;;7.85;4.05;;;1.90;99.90;;;;;;5086233;28;20044;-63
2023/11/18 07:34:38;;;;;;;11.70;4.50;;;1.90;99.90;;;;;;5087914;28;20096;-62
2023/11/18 07:37:03;;;;;;;9.70;4.30;;;1.90;99.90;;;;;;5079986;28;20597;-62
2023/11/18 07:39:43;;;;;;;7.53;3.80;;;2.00;99.90;;;;;;5086797;28;20115;-62
2023/11/18 07:42:11;;;;;;;6.43;4.13;;;2.00;99.90;;;;;;5083190;28;20059;-62
2023/11/18 07:44:38;;;;;;;8.02;3.78;;;2.10;99.90;;;;;;5085859;28;20067;-62
2023/11/18 07:47:05;;;;;;;6.40;3.70;;;2.10;99.90;;;;;;5085902;28;20612;-61
2023/11/18 07:49:35;;;;;;;8.13;3.78;;;2.20;99.90;;;;;;5088161;28;20048;-62
2023/11/18 07:52:04;;;;;;;6.38;4.00;;;2.20;99.90;;;;;;5091160;28;20042;-63
2023/11/18 07:54:29;;;;;;;8.10;3.70;;;2.20;99.90;;;;;;5087387;28;20219;-63
2023/11/18 07:56:55;;;;;;;8.68;3.92;;;2.30;99.90;;;;;;5080820;28;20123;-65
2023/11/18 07:59:21;;;;;;;6.43;3.22;;;2.30;99.90;;;;;;5080127;28;20515;-64
2023/11/18 08:01:48;;;;;;;7.43;3.75;;;2.30;99.90;;;;;;5083563;28;20039;-64
2023/11/18 08:04:14;;;;;;;7.72;3.80;;;2.30;99.90;;;;;;5089227;28;20036;-63
2023/11/18 08:06:40;;;;;;;8.52;3.35;;;2.40;99.90;;;;;;5084260;28;20036;-65
2023/11/18 08:09:13;;;;;;;9.43;3.85;;;2.50;99.90;;;;;;5085545;28;20659;-63
2023/11/18 08:11:41;;;;;;;7.78;3.60;;;2.60;99.90;;;;;;5084844;28;20040;-64
2023/11/18 08:14:07;;;;;;;5.82;3.55;;;2.60;99.90;;;;;;5085541;28;20060;-64
2023/11/18 08:16:33;;;;;;;6.22;3.30;;;2.70;99.90;;;;;;5086597;28;20445;-64
2023/11/18 08:19:02;;;;;;;7.07;3.70;;;2.80;99.90;;;;;;5090162;28;20040;-64
2023/11/18 08:21:28;;;;;;;8.35;4.50;;;2.90;99.90;;;;;;5092721;28;20044;-63
2023/11/18 08:23:54;;;;;;;7.20;4.28;;;2.90;99.90;;;;;;5091800;28;20069;-65
2023/11/18 08:26:20;;;;;;;6.60;3.25;;;2.90;99.90;;;;;;5093062;28;20074;-64
2023/11/18 08:28:45;;;;;;;6.25;3.60;;;3.00;99.90;;;;;;5089222;28;20509;-64
2023/11/18 08:31:15;;;;;;;7.38;4.10;;;3.10;99.90;;;;;;5093180;28;20066;-60
2023/11/18 08:33:43;;;;;;;9.60;4.47;;;3.20;99.90;;;;;;5108703;28;20847;-65
2023/11/18 08:36:08;;;;;;;6.28;4.13;;;3.30;99.90;;;;;;5103482;28;20124;-64
2023/11/18 08:38:35;;;;;;;8.65;5.38;;;3.40;99.90;;;;;;5105967;27;20067;-65
2023/11/18 08:41:01;;;;;;;12.25;5.53;;;3.40;99.90;;;;;;5099600;28;20131;-66
2023/11/18 08:43:28;;;;;;;9.57;5.97;;;3.50;99.90;;;;;;5106801;28;20135;-66
2023/11/18 08:45:54;;;;;;;10.95;6.20;;;3.50;99.90;;;;;;5105327;27;20047;-65
2023/11/18 08:48:22;;;;;;;9.77;4.82;;;3.50;99.90;;;;;;5104636;28;20115;-65
2023/11/18 08:50:48;;;;;;;12.90;5.18;;;3.60;99.90;;;;;;5104162;28;20561;-65
2023/11/18 08:53:17;;;;;;;7.95;5.05;;;3.70;99.90;;;;;;5105180;28;20125;-64
2023/11/18 08:55:50;;;;;;;11.80;6.28;;;3.70;99.90;;;;;;5104354;27;20067;-65
2023/11/18 08:58:21;;;;;;;7.78;5.38;;;3.70;99.90;;;;;;5102115;28;20085;-64
2023/11/18 09:00:48;;;;;;;11.25;4.82;;;3.80;99.90;;;;;;5102955;27;20047;-64
2023/11/18 09:03:34;;;;;;;8.20;5.70;;;3.90;99.90;;;;;;5104894;28;20574;-64
2023/11/18 09:06:17;;;;;;;10.20;5.25;;;4.00;99.90;;;;;;5101271;28;20683;-64
2023/11/18 09:08:43;;;;;;;8.50;5.45;;;4.10;99.90;;;;;;5100397;28;20681;-65
2023/11/18 09:11:14;;;;;;;9.43;5.57;;;4.20;99.90;;;;;;5101233;28;20702;-66
2023/11/18 09:13:49;;;;;;;9.25;4.88;;;4.30;99.90;;;;;;5104676;28;20111;-66
2023/11/18 09:16:15;;;;;;;10.43;5.70;;;4.30;99.90;;;;;;5098414;28;20084;-66
2023/11/18 09:18:44;;;;;;;7.13;4.75;;;4.50;99.90;;;;;;5105533;28;20051;-65
2023/11/18 09:21:24;;;;;;;7.57;5.05;;;4.50;99.90;;;;;;5102600;28;20524;-66
2023/11/18 09:23:51;;;;;;;10.20;4.80;;;4.60;99.90;;;;;;5097429;28;20051;-66
2023/11/18 09:26:16;;;;;;;6.65;4.63;;;4.70;99.90;;;;;;5105361;28;20554;-66
2023/11/18 09:28:44;;;;;;;9.55;4.38;;;4.70;99.90;;;;;;5104048;28;20031;-64
2023/11/18 09:31:11;;;;;;;7.10;4.57;;;4.80;99.90;;;;;;5098304;28;20089;-65
2023/11/18 09:33:39;;;;;;;8.77;4.05;;;4.90;99.90;;;;;;5101718;28;20054;-65
2023/11/18 09:36:07;;;;;;;8.70;5.03;;;5.00;99.90;;;;;;5104642;28;20035;-65
2023/11/18 09:38:40;;;;;;;8.02;4.32;;;5.10;99.90;;;;;;5100365;28;20043;-66
2023/11/18 09:41:11;;;;;;;8.90;3.58;;;5.30;99.90;;;;;;5104853;28;20043;-65
2023/11/18 09:43:52;;;;;;;5.88;3.60;;;5.40;99.90;;;;;;5105188;28;20110;-66
2023/11/18 09:46:26;;;;;;;7.85;3.88;;;5.50;99.90;;;;;;5100626;28;20511;-64
2023/11/18 09:49:17;;;;;;;5.95;3.85;;;5.50;99.90;;;;;;5103551;28;20158;-65
2023/11/18 09:51:47;;;;;;;8.30;3.88;;;5.50;99.90;;;;;;5098517;28;20056;-65
2023/11/18 09:54:18;;;;;;;6.10;3.47;;;5.50;99.90;;;;;;5097750;28;20038;-64
2023/11/18 09:57:12;;;;;;;5.93;3.40;;;5.60;99.90;;;;;;5094069;27;20051;-65
2023/11/18 10:00:10;;;;;;;7.57;3.22;;;5.60;99.90;;;;;;5100774;28;20549;-64
2023/11/18 10:02:39;;;;;;;10.55;3.70;;;5.60;99.90;;;;;;5104573;27;20044;-64
2023/11/18 10:05:12;;;;;;;7.22;3.25;;;5.70;99.90;;;;;;5104015;28;20031;-65
2023/11/18 10:07:42;;;;;;;8.65;2.55;;;5.60;99.90;;;;;;5105777;28;20043;-63
2023/11/18 10:10:14;;;;;;;7.93;3.00;;;5.70;99.90;;;;;;5100033;28;20032;-64
2023/11/18 10:12:44;;;;;;;9.05;4.00;;;5.60;99.90;;;;;;5101114;28;20099;-65
2023/11/18 10:15:18;;;;;;;7.07;3.40;;;5.60;99.90;;;;;;5100338;28;20075;-65
2023/11/18 10:18:06;;;;;;;8.38;3.17;;;5.70;99.90;;;;;;5099850;28;20535;-65
2023/11/18 10:20:51;;;;;;;8.18;2.78;;;5.60;99.90;;;;;;5102101;28;20047;-65
2023/11/18 10:23:21;;;;;;;5.85;2.70;;;5.60;99.90;;;;;;5103102;28;20042;-64
2023/11/18 10:25:54;;;;;;;5.07;3.10;;;5.60;99.90;;;;;;5096651;27;20046;-64
2023/11/18 10:28:27;;;;;;;9.15;4.20;;;5.60;99.90;;;;;;5099314;28;20304;-64
2023/11/18 10:31:04;;;;;;;8.15;3.38;;;5.70;99.90;;;;;;5096268;28;20117;-64
2023/11/18 10:33:35;;;;;;;10.23;4.72;;;5.60;99.90;;;;;;5099994;28;20686;-64
2023/11/18 10:36:07;;;;;;;10.00;5.80;;;5.50;99.90;;;;;;5104951;28;20066;-63
2023/11/18 10:38:43;;;;;;;9.27;5.47;;;5.40;99.90;;;;;;5102927;28;20043;-63
2023/11/18 10:41:09;;;;;;;11.35;4.03;;;5.30;99.90;;;;;;5110088;27;20042;-63
2023/11/18 10:43:35;;;;;;;9.85;6.10;;;5.20;99.90;;;;;;5099546;28;20678;-63
2023/11/18 10:46:11;;;;;;;15.65;7.43;;;5.10;99.90;;;;;;5104188;27;20039;-69
2023/11/18 10:48:40;;;;;;;12.83;7.17;;;5.00;99.90;;;;;;5107144;27;20047;-69
2023/11/18 10:53:37;;;;;;;13.75;6.50;;;4.90;99.90;;;;;;5038096;28;20064;-68
2023/11/18 10:56:16;;;;;;;11.50;6.90;;;5.00;99.90;;;;;;5040106;28;20133;-69
2023/11/18 10:58:41;;;;;;;9.90;5.93;;;5.10;99.90;;;;;;5039168;28;20067;-64
2023/11/18 11:01:11;;;;;;;11.30;6.78;;;5.10;99.90;;;;;;5037593;28;20500;-64
2023/11/18 11:03:57;;;;;;;12.50;6.20;;;5.10;99.90;;;;;;5040657;28;20074;-63
2023/11/18 11:06:30;;;;;;;11.90;6.40;;;5.10;99.90;;;;;;5040874;28;20052;-64
2023/11/18 11:08:58;;;;;;;10.10;5.78;;;5.00;99.90;;;;;;5041542;28;20044;-64
2023/11/18 11:11:26;;;;;;;16.98;6.97;;;5.00;99.90;;;;;;5038296;28;20079;-64
2023/11/18 11:14:03;;;;;;;16.08;6.80;;;4.90;99.90;;;;;;5040848;28;20044;-64
2023/11/18 11:16:37;;;;;;;9.70;5.10;;;4.90;99.90;;;;;;5039216;28;20094;-65
2023/11/18 11:19:08;;;;;;;12.75;4.82;;;4.90;99.90;;;;;;5021229;28;20047;-65
2023/11/18 11:21:47;;;;;;;6.95;4.25;;;4.90;99.90;;;;;;5041974;28;20048;-66
2023/11/18 11:24:23;;;;;;;7.75;4.18;;;4.90;99.90;;;;;;5035635;28;20063;-64
2023/11/18 11:26:56;;;;;;;;;;;5.00;99.90;;;;;;5038257;28;20071;-67
2023/11/18 11:29:51;;;;;;;5.97;3.50;;;5.00;99.90;;;;;;5040229;28;19986;-65
2023/11/18 11:32:39;;;;;;;11.05;4.78;;;5.00;99.90;;;;;;5037737;28;20044;-64
2023/11/18 11:35:16;;;;;;;13.77;3.40;;;5.00;99.90;;;;;;5043018;28;20045;-66
2023/11/18 11:37:44;;;;;;;10.10;3.08;;;4.90;99.90;;;;;;5041893;28;20052;-66
2023/11/18 11:40:12;;;;;;;6.40;2.90;;;4.80;99.90;;;;;;5040363;28;20036;-66
2023/11/18 11:42:42;;;;;;;7.72;3.38;;;4.70;99.90;;;;;;5041831;28;20095;-64
2023/11/18 11:45:19;;;;;;;5.00;2.88;;;4.80;99.90;;;;;;5041600;28;20072;-66
2023/11/18 11:47:49;;;;;;;5.43;2.95;;;4.90;99.90;;;;;;5042510;28;20049;-65
2023/11/18 11:50:37;;;;;;;5.88;2.45;;;4.90;99.90;;;;;;5037642;28;20663;-66
2023/11/18 11:53:16;;;;;;;4.88;2.85;;;4.80;99.90;;;;;;5042874;28;20489;-66
2023/11/18 11:55:51;;;;;;;6.13;2.50;;;4.90;99.90;;;;;;5037159;28;20056;-66
2023/11/18 11:58:32;;;;;;;6.82;2.05;;;4.90;99.90;;;;;;5036969;28;20447;-65
2023/11/18 12:01:23;;;;;;;5.22;2.28;;;4.90;99.90;;;;;;5019519;28;20041;-67
2023/11/18 12:03:49;;;;;;;6.50;2.22;;;4.90;99.90;;;;;;5035768;28;20265;-65
2023/11/18 12:06:23;;;;;;;4.63;2.55;;;4.80;99.90;;;;;;5038934;28;20497;-64
2023/11/18 12:08:51;;;;;;;5.38;2.47;;;4.70;99.90;;;;;;5037455;28;20122;-65
2023/11/18 12:11:17;;;;;;;5.45;2.45;;;4.70;99.90;;;;;;5043797;28;20044;-67
2023/11/18 12:17:38;;;;;;;7.07;3.13;;;4.70;99.90;;;;;;5040622;28;20037;-66
2023/11/18 12:20:06;;;;;;;4.55;2.50;;;4.70;99.90;;;;;;5046525;28;20056;-63
2023/11/18 12:23:07;;;;;;;8.98;3.22;;;4.60;99.90;;;;;;5040196;28;20049;-65
2023/11/18 12:25:32;;;;;;;5.80;3.30;;;4.60;99.90;;;;;;5039279;28;20041;-66
2023/11/18 12:27:58;;;;;;;6.90;3.67;;;4.50;99.90;;;;;;5041216;28;20695;-65
2023/11/18 12:30:29;;;;;;;6.78;3.63;;;4.20;99.90;;;;;;5042483;28;20040;-65
2023/11/18 12:33:08;;;;;;;6.40;4.15;;;4.10;99.90;;;;;;5040467;28;20567;-65
2023/11/18 12:35:59;;;;;;;7.18;3.67;;;4.10;99.90;;;;;;5039536;28;20763;-64
2023/11/18 12:39:03;;;;;;;7.43;3.65;;;4.10;99.90;;;;;;5041553;28;20692;-65
2023/11/18 12:41:38;;;;;;;8.77;4.00;;;4.10;99.90;;;;;;5044843;28;20045;-65
2023/11/18 12:44:21;;;;;;;6.22;3.72;;;4.20;99.90;;;;;;5045796;28;20056;-65
2023/11/18 12:46:55;;;;;;;6.40;3.10;;;4.10;99.90;;;;;;5040654;28;20103;-64
2023/11/18 12:49:24;;;;;;;5.20;2.95;;;4.20;99.90;;;;;;5044439;28;20099;-63
2023/11/18 12:51:52;;;;;;;3.97;2.65;;;4.30;99.90;;;;;;5044522;28;20500;-64
2023/11/18 12:54:24;;;;;;;5.65;3.20;;;4.40;99.90;;;;;;5042797;28;20036;-65
2023/11/18 12:56:53;;;;;;;7.43;3.35;;;4.40;99.90;;;;;;5038995;28;20511;-64
2023/11/18 12:59:20;;;;;;;7.32;4.07;;;4.40;99.90;;;;;;5043014;28;20099;-65
2023/11/18 13:01:56;;;;;;;6.45;3.50;;;4.30;99.90;;;;;;5045914;28;20041;-63
2023/11/18 13:04:24;;;;;;;9.20;3.83;;;4.30;99.90;;;;;;5042658;28;20612;-64
2023/11/18 13:06:51;;;;;;;8.73;3.65;;;4.40;99.90;;;;;;5043676;28;20068;-65
2023/11/18 13:09:28;;;;;;;6.32;3.25;;;4.30;99.90;;;;;;5037815;28;20076;-65
2023/11/18 13:11:58;;;;;;;7.70;3.17;;;4.40;99.90;;;;;;5041120;28;20065;-64
2023/11/18 13:14:29;;;;;;;5.65;3.10;;;4.40;99.90;;;;;;5044374;28;20037;-64